Aviation Digital Data Service (ADDS)

Output produced by METARs form (0809 UTC 25 July 2016)
found at http://aviationweather.gov/adds/metars/
 
KMGW 250520Z 2506/2606 17004KT P6SM BKN120 
     FM250900 18004KT 5SM BR BKN120 
     FM251300 23005KT P6SM BKN120 
     FM251700 24007KT P6SM VCTS BKN040CB 
     FM252100 24008KT P6SM -SHRA VCTS BKN040CB 
     FM260200 24004KT P6SM VCTS BKN040CB